createdAt,value
2022-10-25T07:00:36.980Z,21.41
2022-10-25T07:02:18.236Z,21.72
2022-10-25T07:03:08.142Z,21.69
2022-10-25T07:03:58.181Z,21.67
2022-10-25T07:04:48.223Z,21.57
2022-10-25T07:05:38.302Z,21.56
2022-10-25T07:06:28.381Z,21.50
2022-10-25T07:07:18.390Z,21.46
2022-10-25T07:08:08.488Z,21.45
2022-10-25T07:08:58.562Z,21.44
2022-10-25T07:09:48.586Z,21.44
2022-10-25T07:10:38.657Z,21.44
2022-10-25T07:11:28.768Z,21.46
2022-10-25T07:12:18.800Z,21.45
2022-10-25T07:13:08.818Z,21.48
2022-10-25T07:13:58.832Z,21.48
2022-10-25T07:14:48.910Z,21.50
2022-10-25T07:15:41.443Z,21.51
2022-10-25T07:16:29.066Z,21.51
2022-10-25T07:17:19.090Z,21.51
2022-10-25T07:18:09.112Z,21.56
2022-10-25T07:18:59.140Z,21.57
2022-10-25T07:19:49.308Z,21.57
2022-10-25T07:20:39.275Z,21.59
2022-10-25T07:21:29.277Z,21.61
2022-10-25T07:22:19.299Z,21.60
2022-10-25T07:23:09.392Z,21.64
2022-10-25T07:23:59.321Z,21.66
2022-10-25T07:24:49.314Z,21.67
2022-10-25T07:25:39.381Z,21.66
2022-10-25T07:26:30.829Z,21.63
2022-10-25T07:27:19.411Z,21.74
2022-10-25T07:28:09.428Z,21.78
2022-10-25T07:28:59.512Z,21.75
2022-10-25T07:29:49.517Z,21.64
2022-10-25T07:30:39.529Z,21.61
2022-10-25T07:31:29.561Z,21.56
2022-10-25T07:32:19.676Z,21.53
2022-10-25T07:33:09.698Z,21.53
2022-10-25T07:33:59.820Z,21.51
2022-10-25T07:34:49.791Z,21.53
2022-10-25T07:35:52.213Z,21.54
2022-10-25T07:36:30.804Z,21.54
2022-10-25T07:37:19.849Z,21.56
2022-10-25T07:38:09.859Z,21.57
2022-10-25T07:38:59.941Z,21.59
2022-10-25T07:39:49.961Z,21.60
2022-10-25T07:40:40.254Z,21.60
2022-10-25T07:41:30.059Z,21.63
2022-10-25T07:42:20.060Z,21.64
2022-10-25T07:43:10.219Z,21.64
2022-10-25T07:44:00.152Z,21.67
2022-10-25T07:44:50.211Z,21.69
2022-10-25T07:45:40.311Z,21.71
2022-10-25T07:46:30.310Z,21.71
2022-10-25T07:47:20.357Z,21.71
2022-10-25T07:48:10.408Z,21.71
2022-10-25T07:49:00.476Z,21.71
2022-10-25T07:49:50.542Z,21.72
2022-10-25T07:50:40.598Z,21.72
2022-10-25T07:51:30.700Z,21.72
2022-10-25T07:52:20.694Z,21.75
2022-10-25T07:53:10.698Z,21.75
2022-10-25T07:54:00.821Z,21.75
2022-10-25T07:54:50.809Z,21.76
2022-10-25T07:55:40.898Z,21.78
2022-10-25T07:56:30.871Z,21.78
2022-10-25T07:57:21.046Z,21.79
2022-10-25T07:58:10.980Z,21.78
2022-10-25T07:59:01.032Z,21.79
2022-10-25T07:59:51.115Z,21.79
2022-10-25T08:00:41.120Z,21.81
2022-10-25T08:01:31.176Z,21.81
2022-10-25T08:02:25.455Z,21.81
2022-10-25T08:03:12.302Z,21.82
2022-10-25T08:04:01.236Z,21.82
2022-10-25T08:04:53.563Z,21.81
2022-10-25T08:05:41.312Z,21.83
2022-10-25T08:06:31.314Z,21.82
2022-10-25T08:07:21.340Z,21.82
2022-10-25T08:08:11.355Z,21.82
2022-10-25T08:09:09.734Z,21.82
2022-10-25T08:09:52.418Z,21.82
2022-10-25T08:10:41.455Z,21.82
2022-10-25T08:11:31.450Z,21.82
2022-10-25T08:12:22.653Z,21.83
2022-10-25T08:13:11.534Z,21.83
2022-10-25T08:14:01.533Z,21.85
2022-10-25T08:14:51.560Z,21.85
2022-10-25T08:15:41.578Z,21.85
2022-10-25T08:16:31.577Z,21.88
2022-10-25T08:17:21.636Z,21.91
2022-10-25T08:18:11.696Z,21.92
2022-10-25T08:19:01.742Z,21.94
2022-10-25T08:19:51.741Z,21.95
2022-10-25T08:21:01.343Z,21.92
2022-10-25T08:21:32.786Z,21.90
2022-10-25T08:22:21.838Z,21.88
2022-10-25T08:23:11.847Z,21.85
2022-10-25T08:24:01.894Z,21.90
2022-10-25T08:24:51.944Z,21.90
2022-10-25T08:25:42.004Z,21.88
2022-10-25T08:26:36.593Z,21.94
2022-10-25T08:27:23.111Z,21.97
2022-10-25T08:28:12.147Z,22.01
2022-10-25T08:29:02.206Z,21.99
2022-10-25T08:29:52.267Z,21.95
2022-10-25T08:30:42.328Z,21.91
2022-10-25T08:31:32.384Z,21.91
2022-10-25T08:32:22.458Z,21.92
2022-10-25T08:33:12.458Z,21.94
2022-10-25T08:34:02.507Z,21.94
2022-10-25T08:34:52.493Z,21.92
2022-10-25T08:35:42.494Z,21.92
2022-10-25T08:36:32.537Z,21.95
2022-10-25T08:37:22.613Z,21.95
2022-10-25T08:38:12.620Z,21.92
2022-10-25T08:39:02.658Z,21.92
2022-10-25T08:39:54.931Z,21.95
2022-10-25T08:40:42.734Z,21.94
2022-10-25T08:41:32.786Z,21.92
2022-10-25T08:42:22.780Z,21.94
2022-10-25T08:43:12.839Z,21.95
2022-10-25T08:44:02.916Z,21.98
2022-10-25T08:44:52.896Z,21.97
2022-10-25T08:45:44.831Z,21.97
2022-10-25T08:46:32.972Z,21.98
2022-10-25T08:47:23.010Z,22.01
2022-10-25T08:48:13.076Z,22.09
2022-10-25T08:49:03.089Z,22.07
2022-10-25T08:49:53.089Z,22.09
2022-10-25T08:50:43.087Z,22.07
2022-10-25T08:51:33.177Z,22.02
2022-10-25T08:52:23.182Z,22.01
2022-10-25T08:53:13.232Z,22.02
2022-10-25T08:54:03.287Z,21.99
2022-10-25T08:54:53.360Z,21.99
2022-10-25T08:55:58.820Z,21.97
2022-10-25T08:56:39.535Z,21.95
2022-10-25T08:57:24.473Z,21.94
2022-10-25T08:58:13.505Z,21.92
2022-10-25T08:59:03.567Z,21.91
2022-10-25T08:59:53.617Z,21.91
2022-10-25T09:00:43.679Z,21.88
2022-10-25T09:01:33.805Z,21.88
2022-10-25T09:02:23.887Z,21.85
2022-10-25T09:03:15.409Z,21.91
2022-10-25T09:04:03.788Z,21.94
2022-10-25T09:04:53.840Z,22.09
2022-10-25T09:05:43.913Z,22.19
2022-10-25T09:06:33.917Z,22.46
2022-10-25T09:07:23.933Z,22.62
2022-10-25T09:08:14.003Z,22.68
2022-10-25T09:09:03.999Z,22.75
2022-10-25T09:09:54.048Z,22.80
2022-10-25T09:10:44.052Z,22.82
2022-10-25T09:11:34.117Z,22.86
2022-10-25T09:12:24.115Z,22.89
2022-10-25T09:13:14.170Z,22.92
2022-10-25T09:14:04.201Z,22.93
2022-10-25T09:14:54.268Z,22.87
